createdAt,value
2017-11-13T00:03:01.351Z,4.80
2017-11-13T00:08:03.888Z,5.20
2017-11-13T00:13:06.452Z,5.70
2017-11-13T00:18:09.004Z,5.97
2017-11-13T00:23:11.589Z,4.80
2017-11-13T00:28:14.148Z,4.10
2017-11-13T00:33:16.731Z,4.90
2017-11-13T00:38:20.076Z,5.70
2017-11-13T00:43:22.704Z,4.50
2017-11-13T00:48:26.073Z,4.97
2017-11-13T00:53:29.404Z,5.50
2017-11-13T00:58:31.991Z,5.40
2017-11-13T01:03:35.315Z,5.37
2017-11-13T01:08:37.875Z,4.60
2017-11-13T01:13:40.441Z,5.57
2017-11-13T01:18:43.006Z,6.00
2017-11-13T01:23:45.568Z,4.93
2017-11-13T01:28:48.137Z,5.33
2017-11-13T01:33:50.756Z,6.37
2017-11-13T01:38:53.312Z,5.40
2017-11-13T01:43:56.680Z,6.33
2017-11-13T01:48:59.237Z,5.63
2017-11-13T01:54:01.792Z,5.60
2017-11-13T01:59:04.348Z,5.50
2017-11-13T02:04:06.913Z,5.87
2017-11-13T02:09:10.250Z,5.17
2017-11-13T02:14:12.839Z,5.00
2017-11-13T02:19:16.164Z,6.27
2017-11-13T02:24:18.721Z,5.97
2017-11-13T02:29:21.314Z,5.97
2017-11-13T02:34:23.879Z,6.03
2017-11-13T02:39:27.197Z,6.13
2017-11-13T02:44:29.746Z,6.50
2017-11-13T02:49:32.334Z,6.27
2017-11-13T02:54:34.913Z,5.80
2017-11-13T02:59:37.483Z,8.03
2017-11-13T03:04:40.171Z,7.33
2017-11-13T03:09:42.722Z,6.67
2017-11-13T03:14:45.291Z,6.87
2017-11-13T03:19:47.840Z,6.73
2017-11-13T03:24:50.443Z,7.20
2017-11-13T03:29:53.024Z,6.60
2017-11-13T03:34:55.636Z,7.43
2017-11-13T03:39:58.175Z,7.17
2017-11-13T03:45:00.737Z,6.90
2017-11-13T03:50:03.296Z,6.80
2017-11-13T03:55:05.878Z,6.40
2017-11-13T04:00:09.241Z,5.67
2017-11-13T04:05:11.820Z,6.53
2017-11-13T04:10:14.505Z,5.77
2017-11-13T04:15:17.088Z,5.43
2017-11-13T04:20:19.652Z,5.33
2017-11-13T04:25:22.266Z,6.03
2017-11-13T04:30:24.845Z,5.97
2017-11-13T04:35:27.409Z,5.60
2017-11-13T04:40:29.980Z,6.10
2017-11-13T04:45:32.530Z,5.57
2017-11-13T04:50:35.069Z,6.80
2017-11-13T04:55:37.628Z,6.97
2017-11-13T05:00:40.207Z,6.30
2017-11-13T05:05:42.766Z,6.90
2017-11-13T05:10:45.300Z,5.63
2017-11-13T05:15:47.849Z,6.20
2017-11-13T05:20:50.409Z,6.77
2017-11-13T05:25:52.989Z,6.57
2017-11-13T05:30:56.316Z,5.67
2017-11-13T05:35:58.887Z,7.03
2017-11-13T05:41:01.498Z,6.40
2017-11-13T05:46:04.053Z,6.47
2017-11-13T05:51:06.632Z,7.20
2017-11-13T05:56:09.212Z,6.30
2017-11-13T06:01:11.786Z,6.60
2017-11-13T06:06:14.358Z,6.77
2017-11-13T06:11:16.933Z,7.90
2017-11-13T06:16:19.487Z,7.40
2017-11-13T06:21:22.037Z,6.90
2017-11-13T06:26:24.594Z,7.30
2017-11-13T06:31:27.932Z,6.90
2017-11-13T06:36:30.485Z,7.93
2017-11-13T06:41:33.061Z,7.00
2017-11-13T06:46:35.646Z,5.70
2017-11-13T06:51:38.221Z,6.07
2017-11-13T06:56:41.568Z,5.47
2017-11-13T07:01:44.125Z,6.67
2017-11-13T07:06:46.675Z,5.60
2017-11-13T07:11:49.233Z,6.00
2017-11-13T07:16:51.916Z,5.00
2017-11-13T07:21:54.512Z,4.57
2017-11-13T07:26:57.081Z,4.80
2017-11-13T07:31:59.701Z,4.87
2017-11-13T07:37:02.261Z,4.40
2017-11-13T07:42:04.803Z,4.13
2017-11-13T07:47:07.372Z,4.20
2017-11-13T07:52:09.931Z,4.13
2017-11-13T07:57:12.492Z,4.27
2017-11-13T08:02:15.036Z,5.20
2017-11-13T08:07:18.359Z,5.13
2017-11-13T08:12:21.694Z,4.63
2017-11-13T08:17:24.254Z,6.07
2017-11-13T08:22:26.830Z,5.40
2017-11-13T08:27:29.397Z,3.80
2017-11-13T08:32:31.976Z,4.70
2017-11-13T08:37:34.572Z,4.50
2017-11-13T08:42:37.301Z,4.50
2017-11-13T08:47:39.856Z,5.13
2017-11-13T08:52:42.431Z,5.00
2017-11-13T08:57:44.963Z,5.03
2017-11-13T09:02:47.532Z,5.80
2017-11-13T09:07:50.088Z,5.00
2017-11-13T09:12:52.669Z,5.83
2017-11-13T09:17:55.233Z,5.87
2017-11-13T09:22:57.808Z,4.60
2017-11-13T09:28:00.358Z,6.23
2017-11-13T09:33:02.914Z,4.87
2017-11-13T09:38:05.497Z,4.87
2017-11-13T09:43:08.075Z,4.33
2017-11-13T09:48:11.383Z,6.43
2017-11-13T09:53:14.715Z,5.30
2017-11-13T09:58:17.262Z,5.17
2017-11-13T10:03:19.826Z,3.87
2017-11-13T10:08:23.224Z,5.33
2017-11-13T10:13:25.805Z,5.20
2017-11-13T10:18:28.406Z,5.17
2017-11-13T10:23:30.989Z,4.53
2017-11-13T10:28:33.532Z,5.37
2017-11-13T10:33:36.121Z,3.50
2017-11-13T10:38:38.729Z,3.63
2017-11-13T10:43:41.325Z,3.60
2017-11-13T10:53:41.016Z,3.10
2017-11-13T10:58:43.565Z,3.80
2017-11-13T11:03:46.129Z,3.80
2017-11-13T11:08:48.675Z,3.63
2017-11-13T11:19:34.619Z,3.70
2017-11-13T11:24:37.212Z,2.70
2017-11-13T11:29:45.551Z,3.20
2017-11-13T11:35:04.905Z,2.50
2017-11-13T11:40:07.472Z,2.97
2017-11-13T11:45:12.012Z,2.40
2017-11-13T11:50:14.568Z,2.60
2017-11-13T11:55:27.913Z,2.43
2017-11-13T12:00:30.480Z,2.47
2017-11-13T12:05:33.092Z,3.43
2017-11-13T12:10:35.698Z,2.60
2017-11-13T12:15:38.253Z,2.60
2017-11-13T12:20:40.812Z,2.60
2017-11-13T12:25:43.353Z,2.83
2017-11-13T12:30:45.938Z,2.10
2017-11-13T12:35:48.501Z,2.30
2017-11-13T12:40:51.070Z,2.60
2017-11-13T12:45:53.620Z,2.37
2017-11-13T12:50:56.175Z,2.13
2017-11-13T12:55:58.741Z,2.93
2017-11-13T13:01:01.298Z,2.20
2017-11-13T13:06:03.887Z,2.63
2017-11-13T13:11:06.451Z,2.47
2017-11-13T13:16:09.036Z,1.60
2017-11-13T13:21:11.591Z,2.50
2017-11-13T13:26:14.203Z,1.83
2017-11-13T13:31:16.754Z,2.30
2017-11-13T13:36:19.434Z,2.00
2017-11-13T13:41:22.010Z,2.07
2017-11-13T13:46:24.585Z,2.00
2017-11-13T13:51:27.145Z,1.80
2017-11-13T13:56:29.792Z,2.20
2017-11-13T14:01:32.371Z,1.77
2017-11-13T14:06:34.919Z,2.50
2017-11-13T14:11:37.469Z,2.30
2017-11-13T14:16:40.046Z,2.40
2017-11-13T14:21:43.391Z,2.67
2017-11-13T14:26:45.945Z,2.40
2017-11-13T14:31:48.521Z,3.23
2017-11-13T14:36:51.705Z,2.77
2017-11-13T14:41:54.310Z,2.30
2017-11-13T14:46:56.865Z,2.87
2017-11-13T14:51:59.462Z,2.67
2017-11-13T14:57:02.031Z,2.30
2017-11-13T15:02:04.587Z,2.13
2017-11-13T15:07:07.915Z,2.30
2017-11-13T15:12:10.455Z,2.20
2017-11-13T15:17:13.447Z,1.83
2017-11-13T15:22:16.110Z,1.63
2017-11-13T15:27:18.700Z,1.70
2017-11-13T15:32:21.272Z,1.80
2017-11-13T15:37:25.407Z,1.37
2017-11-13T15:42:29.741Z,1.50
2017-11-13T15:52:43.829Z,1.50
2017-11-13T15:57:46.853Z,1.50
2017-11-13T16:07:56.834Z,1.53
2017-11-13T16:13:00.242Z,3.20
2017-11-13T16:28:17.444Z,2.00
2017-11-13T16:33:23.528Z,3.33
2017-11-13T16:43:34.825Z,4.53
2017-11-13T16:48:38.225Z,5.10
2017-11-13T17:03:55.757Z,4.60
2017-11-13T17:14:09.403Z,4.60
2017-11-13T17:19:14.707Z,3.57
2017-11-13T17:24:20.810Z,8.63
2017-11-13T17:29:28.164Z,6.90
2017-11-13T17:34:34.205Z,8.17
2017-11-13T17:39:37.192Z,6.17
2017-11-13T17:44:41.620Z,3.00
2017-11-13T17:49:45.126Z,3.47
2017-11-13T17:54:48.155Z,2.60
2017-11-13T17:59:52.558Z,2.87
2017-11-13T18:10:03.960Z,1.80
2017-11-13T18:15:08.039Z,2.13
2017-11-13T18:20:12.072Z,3.27
2017-11-13T18:25:15.783Z,6.13
2017-11-13T18:30:20.273Z,4.10
2017-11-13T18:40:33.725Z,3.30
2017-11-13T18:45:38.280Z,3.57
2017-11-13T18:50:41.474Z,3.60
2017-11-13T18:55:45.171Z,3.13
2017-11-13T19:11:02.538Z,3.80
2017-11-13T19:16:05.165Z,4.20
2017-11-13T19:21:07.830Z,3.90
2017-11-13T19:26:10.410Z,3.87
2017-11-13T19:31:13.102Z,5.40
2017-11-13T19:36:15.741Z,3.73
2017-11-13T19:41:18.341Z,3.90
2017-11-13T19:46:21.043Z,4.30
2017-11-13T19:51:23.768Z,4.50
2017-11-13T19:56:26.348Z,3.30
2017-11-13T20:01:28.962Z,3.70
2017-11-13T20:06:33.000Z,4.00
2017-11-13T20:11:35.605Z,3.80
2017-11-13T20:16:38.243Z,3.20
2017-11-13T20:21:40.896Z,3.40
2017-11-13T20:26:43.549Z,3.10
2017-11-13T20:31:46.170Z,4.20
2017-11-13T20:36:48.858Z,5.30
2017-11-13T20:41:51.439Z,4.60
2017-11-13T20:46:54.068Z,4.37
2017-11-13T20:51:56.674Z,3.80
2017-11-13T20:56:59.310Z,3.23
2017-11-13T21:02:01.919Z,3.57
2017-11-13T21:07:04.486Z,3.00
2017-11-13T21:12:07.076Z,2.70
2017-11-13T21:17:09.650Z,2.70
2017-11-13T21:22:12.288Z,3.87
2017-11-13T21:27:14.853Z,2.90
2017-11-13T21:32:17.510Z,3.07
2017-11-13T21:37:20.057Z,3.17
2017-11-13T21:42:22.633Z,3.20
2017-11-13T21:47:25.321Z,2.33
2017-11-13T21:52:27.894Z,2.43
2017-11-13T21:57:31.216Z,2.90
2017-11-13T22:02:33.787Z,3.00
2017-11-13T22:07:36.339Z,2.63
2017-11-13T22:12:38.924Z,2.60
2017-11-13T22:17:41.521Z,2.97
2017-11-13T22:22:44.078Z,3.07
2017-11-13T22:27:46.644Z,3.60
2017-11-13T22:32:49.181Z,3.30
2017-11-13T22:37:51.743Z,4.70
2017-11-13T22:42:54.325Z,4.93
2017-11-13T22:47:56.873Z,4.40
2017-11-13T22:52:59.467Z,4.33
2017-11-13T22:58:02.032Z,4.97
2017-11-13T23:03:04.585Z,4.30
2017-11-13T23:08:07.156Z,4.43
2017-11-13T23:13:09.705Z,4.37
2017-11-13T23:18:13.022Z,4.30
2017-11-13T23:23:15.573Z,5.83
2017-11-13T23:28:18.129Z,4.90
2017-11-13T23:33:21.445Z,4.23
2017-11-13T23:38:24.016Z,4.90
2017-11-13T23:43:26.568Z,4.40
2017-11-13T23:48:29.173Z,4.00
2017-11-13T23:53:31.711Z,4.63
2017-11-13T23:58:34.305Z,4.73
